createdAt,value
2018-04-27T00:00:33.215Z,5.90
2018-04-27T00:03:00.818Z,5.90
2018-04-27T00:05:28.454Z,5.90
2018-04-27T00:07:56.764Z,5.90
2018-04-27T00:10:24.412Z,5.80
2018-04-27T00:12:52.116Z,5.70
2018-04-27T00:15:20.319Z,5.70
2018-04-27T00:17:47.911Z,5.70
2018-04-27T00:20:15.483Z,5.60
2018-04-27T00:22:43.552Z,5.60
2018-04-27T00:25:11.130Z,5.60
2018-04-27T00:27:39.094Z,5.60
2018-04-27T00:30:07.139Z,5.60
2018-04-27T00:32:35.082Z,5.60
2018-04-27T00:35:02.725Z,5.60
2018-04-27T00:37:31.089Z,5.50
2018-04-27T00:39:58.649Z,5.50
2018-04-27T00:42:26.247Z,5.40
2018-04-27T00:44:53.892Z,5.40
2018-04-27T00:47:22.071Z,5.30
2018-04-27T00:49:49.692Z,5.20
2018-04-27T00:52:17.694Z,5.10
2018-04-27T00:54:45.318Z,5.10
2018-04-27T00:57:12.913Z,5.00
2018-04-27T00:59:40.550Z,5.00
2018-04-27T01:02:08.123Z,4.90
2018-04-27T01:04:35.833Z,5.00
2018-04-27T01:07:03.691Z,5.00
2018-04-27T01:09:32.211Z,5.00
2018-04-27T01:11:59.790Z,5.00
2018-04-27T01:14:27.371Z,5.00
2018-04-27T01:16:55.506Z,5.00
2018-04-27T01:19:24.137Z,5.10
2018-04-27T01:21:52.606Z,5.00
2018-04-27T01:24:20.255Z,4.70
2018-04-27T01:26:48.716Z,4.60
2018-04-27T01:29:16.314Z,4.50
2018-04-27T01:31:44.660Z,4.60
2018-04-27T01:34:12.270Z,4.60
2018-04-27T01:36:39.841Z,4.50
2018-04-27T01:39:07.867Z,4.50
2018-04-27T01:41:35.476Z,4.50
2018-04-27T01:44:03.013Z,4.50
2018-04-27T01:46:30.819Z,4.40
2018-04-27T01:48:58.368Z,4.30
2018-04-27T01:51:26.532Z,4.10
2018-04-27T01:53:54.555Z,4.00
2018-04-27T01:56:22.573Z,3.90
2018-04-27T01:58:50.759Z,3.80
2018-04-27T02:01:18.419Z,3.80
2018-04-27T02:03:46.015Z,3.70
2018-04-27T02:06:13.661Z,3.80
2018-04-27T02:08:41.372Z,3.80
2018-04-27T02:11:10.135Z,3.70
2018-04-27T02:13:37.685Z,3.70
2018-04-27T02:16:05.310Z,3.60
2018-04-27T02:18:32.890Z,3.60
2018-04-27T02:21:00.502Z,3.50
2018-04-27T02:23:28.138Z,3.50
2018-04-27T02:25:55.734Z,3.50
2018-04-27T02:28:23.425Z,3.50
2018-04-27T02:30:51.018Z,3.50
2018-04-27T02:33:19.294Z,3.60
2018-04-27T02:35:46.936Z,3.60
2018-04-27T02:38:14.565Z,3.60
2018-04-27T02:40:42.204Z,3.60
2018-04-27T02:43:09.832Z,3.60
2018-04-27T02:45:37.755Z,3.70
2018-04-27T02:48:05.319Z,3.70
2018-04-27T02:50:33.383Z,3.60
2018-04-27T02:53:00.982Z,3.60
2018-04-27T02:55:28.595Z,3.60
2018-04-27T02:57:56.192Z,3.70
2018-04-27T03:00:23.792Z,3.80
2018-04-27T03:02:51.440Z,3.70
2018-04-27T03:05:19.316Z,3.60
2018-04-27T03:07:48.735Z,3.60
2018-04-27T03:10:17.254Z,3.70
2018-04-27T03:12:44.926Z,3.80
2018-04-27T03:15:13.360Z,3.80
2018-04-27T03:17:41.301Z,3.70
2018-04-27T03:20:08.880Z,3.60
2018-04-27T03:22:37.305Z,3.60
2018-04-27T03:25:04.862Z,3.70
2018-04-27T03:27:32.980Z,3.70
2018-04-27T03:30:00.682Z,3.70
2018-04-27T03:32:28.277Z,3.60
2018-04-27T03:34:56.336Z,3.60
2018-04-27T03:37:24.008Z,3.60
2018-04-27T03:39:51.664Z,3.60
2018-04-27T03:42:20.924Z,3.70
2018-04-27T03:44:48.556Z,3.60
2018-04-27T03:47:16.155Z,3.70
2018-04-27T03:49:43.857Z,3.60
2018-04-27T03:52:11.496Z,3.50
2018-04-27T03:54:39.074Z,3.40
2018-04-27T03:57:06.708Z,3.40
2018-04-27T03:59:46.211Z,3.40
2018-04-27T04:02:25.528Z,3.30
2018-04-27T04:05:04.914Z,3.20
2018-04-27T04:07:32.601Z,3.20
2018-04-27T04:10:00.974Z,3.10
2018-04-27T04:12:28.575Z,3.00
2018-04-27T04:14:56.118Z,2.90
2018-04-27T04:17:23.671Z,2.90
2018-04-27T04:19:51.215Z,2.90
2018-04-27T04:22:18.803Z,3.00
2018-04-27T04:24:46.400Z,3.10
2018-04-27T04:27:14.047Z,3.10
2018-04-27T04:29:42.452Z,3.10
2018-04-27T04:32:10.395Z,3.20
2018-04-27T04:34:37.987Z,3.20
2018-04-27T04:37:05.984Z,3.40
2018-04-27T04:39:33.548Z,3.40
2018-04-27T04:42:01.146Z,3.40
2018-04-27T04:44:28.708Z,3.40
2018-04-27T04:46:56.314Z,3.50
2018-04-27T04:49:23.842Z,3.50
2018-04-27T04:51:51.435Z,3.50
2018-04-27T04:54:19.020Z,3.60
2018-04-27T04:56:46.634Z,3.70
2018-04-27T04:59:14.267Z,3.80
2018-04-27T05:01:41.845Z,3.90
2018-04-27T05:04:09.422Z,4.00
2018-04-27T05:06:37.043Z,4.20
2018-04-27T05:09:04.680Z,4.20
2018-04-27T05:11:32.279Z,4.20
2018-04-27T05:13:59.907Z,4.20
2018-04-27T05:16:27.479Z,4.20
2018-04-27T05:18:56.819Z,4.20
2018-04-27T05:21:24.401Z,4.30
2018-04-27T05:23:51.958Z,4.30
2018-04-27T05:26:19.511Z,4.30
2018-04-27T05:28:47.078Z,4.40
2018-04-27T05:31:25.313Z,4.50
2018-04-27T05:33:52.944Z,4.60
2018-04-27T05:36:20.582Z,4.70
2018-04-27T05:38:48.190Z,4.80
2018-04-27T05:41:15.751Z,4.90
2018-04-27T05:43:43.323Z,5.00
2018-04-27T05:46:10.887Z,5.10
2018-04-27T05:48:38.498Z,5.30
2018-04-27T05:51:06.200Z,5.50
2018-04-27T05:53:33.752Z,5.60
2018-04-27T05:56:01.311Z,5.70
2018-04-27T05:58:28.905Z,5.80
2018-04-27T06:00:56.456Z,5.90
2018-04-27T06:03:24.032Z,5.90
2018-04-27T06:05:51.653Z,6.00
2018-04-27T06:08:19.690Z,6.50
2018-04-27T06:10:47.265Z,6.40
2018-04-27T06:13:14.883Z,6.60
2018-04-27T06:15:42.468Z,6.80
2018-04-27T06:18:10.068Z,6.90
2018-04-27T06:20:38.039Z,7.00
2018-04-27T06:23:05.592Z,7.10
2018-04-27T06:25:33.179Z,7.20
2018-04-27T06:28:00.806Z,7.30
2018-04-27T06:30:28.475Z,7.50
2018-04-27T06:32:56.440Z,7.80
2018-04-27T06:35:24.399Z,8.10
2018-04-27T06:37:52.020Z,8.10
2018-04-27T06:40:19.571Z,8.30
2018-04-27T06:42:47.146Z,8.40
2018-04-27T06:45:14.724Z,8.50
2018-04-27T06:47:42.303Z,8.60
2018-04-27T06:50:10.415Z,8.90
2018-04-27T06:52:38.443Z,9.20
2018-04-27T06:55:06.079Z,9.40
2018-04-27T06:57:34.027Z,9.70
2018-04-27T07:00:01.620Z,9.90
2018-04-27T07:02:29.204Z,10.20
2018-04-27T07:04:56.795Z,10.50
2018-04-27T07:07:26.400Z,10.80
2018-04-27T07:09:56.658Z,11.10
2018-04-27T07:12:24.248Z,11.50
2018-04-27T07:14:51.832Z,11.80
2018-04-27T07:17:19.374Z,12.10
2018-04-27T07:19:46.985Z,12.30
2018-04-27T07:22:14.543Z,12.60
2018-04-27T07:24:42.159Z,12.70
2018-04-27T07:27:09.709Z,12.90
2018-04-27T07:29:37.294Z,13.20
2018-04-27T07:32:04.842Z,13.60
2018-04-27T07:34:32.446Z,13.90
2018-04-27T07:37:00.039Z,14.00
2018-04-27T07:39:27.658Z,14.20
2018-04-27T07:41:58.962Z,14.60
2018-04-27T07:44:26.587Z,15.00
2018-04-27T07:46:54.152Z,15.40
2018-04-27T07:49:21.961Z,15.50
2018-04-27T07:51:49.502Z,15.80
2018-04-27T07:54:17.120Z,16.00
2018-04-27T07:56:44.696Z,16.20
2018-04-27T07:59:12.286Z,16.50
2018-04-27T08:01:57.561Z,16.70
2018-04-27T08:04:25.155Z,17.00
2018-04-27T08:06:52.795Z,17.10
2018-04-27T08:09:20.392Z,17.20
2018-04-27T08:11:48.023Z,17.30
2018-04-27T08:14:22.289Z,17.30
2018-04-27T08:16:49.878Z,17.40
2018-04-27T08:19:17.529Z,17.50
2018-04-27T08:21:45.115Z,17.50
2018-04-27T08:24:12.730Z,17.60
2018-04-27T08:26:40.288Z,17.80
2018-04-27T08:29:07.866Z,18.10
2018-04-27T08:31:35.440Z,18.30
2018-04-27T08:34:02.985Z,18.30
2018-04-27T08:36:30.562Z,18.40
2018-04-27T08:38:58.152Z,18.50
2018-04-27T08:41:25.763Z,18.60
2018-04-27T08:43:53.376Z,18.80
2018-04-27T10:01:13.228Z,22.20
2018-04-27T10:03:40.850Z,22.40
2018-04-27T10:06:08.471Z,22.90
2018-04-27T10:08:36.046Z,23.20
2018-04-27T10:11:03.602Z,23.50
2018-04-27T10:13:33.262Z,23.40
2018-04-27T10:16:00.872Z,23.40
2018-04-27T10:18:28.414Z,23.80
2018-04-27T10:20:55.994Z,24.10
2018-04-27T10:23:23.565Z,23.80
2018-04-27T10:25:51.184Z,23.80
2018-04-27T10:28:18.747Z,23.90
2018-04-27T10:30:46.362Z,23.90
2018-04-27T10:33:13.934Z,24.30
2018-04-27T10:35:41.629Z,24.00
2018-04-27T10:38:09.213Z,24.30
2018-04-27T10:40:36.827Z,24.30
2018-04-27T10:43:04.382Z,24.10
2018-04-27T10:45:31.914Z,23.70
2018-04-27T10:47:59.460Z,23.70
2018-04-27T10:50:27.040Z,23.70
2018-04-27T10:52:54.632Z,23.80
2018-04-27T10:55:22.176Z,24.10
2018-04-27T10:57:49.766Z,23.80
2018-04-27T11:00:17.322Z,24.20
2018-04-27T11:02:44.895Z,24.40
2018-04-27T11:05:12.430Z,24.90
2018-04-27T11:07:40.008Z,25.20
2018-04-27T11:10:07.583Z,25.30
2018-04-27T11:12:35.571Z,25.70
2018-04-27T11:15:03.119Z,25.70
2018-04-27T11:17:31.071Z,25.40
2018-04-27T11:19:58.619Z,25.40
2018-04-27T11:22:26.213Z,25.10
2018-04-27T11:24:53.757Z,24.70
2018-04-27T11:27:21.329Z,24.60
2018-04-27T11:29:48.887Z,24.60
2018-04-27T11:32:16.481Z,25.00
2018-04-27T11:34:44.081Z,25.00
2018-04-27T11:37:11.703Z,25.10
2018-04-27T11:39:39.316Z,24.80
2018-04-27T11:42:06.937Z,25.00
2018-04-27T11:44:34.674Z,25.50
2018-04-27T11:47:02.310Z,25.70
2018-04-27T11:49:29.891Z,25.40
2018-04-27T11:51:57.546Z,24.90
2018-04-27T11:54:25.106Z,24.90
2018-04-27T11:56:52.744Z,25.00
2018-04-27T11:59:20.319Z,25.00
2018-04-27T12:01:47.944Z,25.30
2018-04-27T12:04:15.891Z,25.90
2018-04-27T12:06:43.490Z,25.90
2018-04-27T12:09:11.098Z,26.00
2018-04-27T12:11:38.787Z,26.10
2018-04-27T12:14:06.414Z,26.40
2018-04-27T12:16:34.082Z,26.70
2018-04-27T12:19:01.663Z,26.70
2018-04-27T12:21:29.652Z,26.60
2018-04-27T12:23:57.240Z,26.60
2018-04-27T12:26:24.792Z,26.70
2018-04-27T12:28:54.448Z,26.90
2018-04-27T12:31:22.138Z,27.10
2018-04-27T12:33:49.623Z,27.20
2018-04-27T12:36:17.194Z,27.10
2018-04-27T12:38:44.750Z,27.20
2018-04-27T12:41:12.322Z,27.00
2018-04-27T12:43:39.913Z,27.00
2018-04-27T12:46:19.124Z,27.10
2018-04-27T12:48:46.716Z,27.20
2018-04-27T12:51:14.292Z,27.50
2018-04-27T12:53:41.892Z,27.60
2018-04-27T12:56:09.459Z,27.90
2018-04-27T12:58:39.529Z,28.70
2018-04-27T13:01:07.110Z,28.70
2018-04-27T13:03:34.682Z,29.30
2018-04-27T13:06:02.241Z,29.80
2018-04-27T13:08:30.829Z,30.70
2018-04-27T13:11:02.637Z,30.90
2018-04-27T13:13:31.543Z,31.40
2018-04-27T13:16:00.336Z,32.30
2018-04-27T13:18:31.460Z,33.10
2018-04-27T13:21:02.879Z,33.10
2018-04-27T13:23:37.054Z,34.10
2018-04-27T13:26:04.600Z,34.90
2018-04-27T13:28:32.233Z,35.60
2018-04-27T13:31:04.052Z,35.50
2018-04-27T13:33:33.321Z,35.10
2018-04-27T13:36:00.864Z,35.00
2018-04-27T13:38:31.499Z,35.30
2018-04-27T13:41:00.981Z,35.80
2018-04-27T13:43:29.251Z,34.90
2018-04-27T13:45:58.083Z,35.40
2018-04-27T13:48:25.632Z,37.40
2018-04-27T13:50:53.212Z,38.90
2018-04-27T13:53:20.770Z,39.90
2018-04-27T13:55:49.214Z,40.80
2018-04-27T13:58:17.425Z,40.30
2018-04-27T14:00:45.034Z,41.00
2018-04-27T14:03:12.874Z,41.20
2018-04-27T14:05:40.452Z,41.00
2018-04-27T14:08:08.953Z,40.80
2018-04-27T14:10:36.540Z,40.90
2018-04-27T14:13:04.169Z,40.10
2018-04-27T14:15:33.722Z,39.80
2018-04-27T14:18:02.447Z,40.80
2018-04-27T14:20:29.983Z,40.80
2018-04-27T14:22:57.547Z,41.70
2018-04-27T14:25:25.118Z,42.70
2018-04-27T14:27:52.690Z,42.40
2018-04-27T14:30:20.236Z,42.30
2018-04-27T14:32:47.802Z,42.30
2018-04-27T14:35:15.334Z,42.00
2018-04-27T14:37:42.918Z,41.90
2018-04-27T14:40:10.462Z,42.20
2018-04-27T14:42:38.020Z,41.90
2018-04-27T14:45:05.614Z,41.80
2018-04-27T14:47:34.301Z,41.60
2018-04-27T14:50:01.944Z,40.80
2018-04-27T14:52:29.565Z,41.00
2018-04-27T14:54:57.081Z,41.40
2018-04-27T14:57:34.547Z,40.60
2018-04-27T15:00:02.835Z,40.30
2018-04-27T15:02:31.292Z,40.40
2018-04-27T15:04:59.167Z,41.10
2018-04-27T15:07:27.005Z,41.60
2018-04-27T15:09:54.610Z,40.90
2018-04-27T15:12:22.228Z,39.40
2018-04-27T15:14:49.799Z,37.60
2018-04-27T15:17:17.327Z,36.20
2018-04-27T15:19:45.300Z,36.10
2018-04-27T15:22:12.856Z,36.10
2018-04-27T15:24:40.814Z,34.80
2018-04-27T15:27:08.393Z,34.80
2018-04-27T15:29:35.967Z,33.80
2018-04-27T15:32:03.513Z,33.10
2018-04-27T15:34:31.110Z,33.50
2018-04-27T15:36:58.675Z,35.20
2018-04-27T15:39:26.286Z,36.80
2018-04-27T15:41:53.872Z,37.40
2018-04-27T15:44:21.450Z,37.60
2018-04-27T15:46:49.037Z,37.40
2018-04-27T15:49:17.474Z,35.90
2018-04-27T15:51:45.164Z,34.70
2018-04-27T15:54:12.759Z,33.70
2018-04-27T15:56:40.341Z,31.70
2018-04-27T15:59:07.932Z,29.80
2018-04-27T16:01:35.524Z,27.90
2018-04-27T16:04:03.498Z,26.00
2018-04-27T16:06:32.995Z,26.10
2018-04-27T16:09:00.683Z,25.10
2018-04-27T16:11:28.221Z,24.30
2018-04-27T16:13:56.630Z,23.80
2018-04-27T16:16:24.222Z,23.40
2018-04-27T16:18:51.821Z,23.10
2018-04-27T16:21:19.490Z,22.90
2018-04-27T16:23:47.001Z,22.50
2018-04-27T16:26:15.651Z,22.20
2018-04-27T16:28:43.252Z,21.90
2018-04-27T16:31:10.836Z,21.60
2018-04-27T16:33:46.756Z,21.50
2018-04-27T16:36:14.315Z,21.50
2018-04-27T16:38:41.897Z,21.40
2018-04-27T16:41:09.538Z,21.30
2018-04-27T16:43:37.095Z,21.10
2018-04-27T16:46:12.672Z,21.00
2018-04-27T16:48:40.227Z,20.90
2018-04-27T16:51:08.913Z,20.80
2018-04-27T16:53:38.482Z,20.60
2018-04-27T16:56:06.124Z,20.60
2018-04-27T16:58:34.080Z,20.50
2018-04-27T17:01:02.147Z,20.50
2018-04-27T17:03:30.829Z,20.60
2018-04-27T17:05:58.476Z,20.60
2018-04-27T17:08:26.088Z,20.70
2018-04-27T17:10:53.698Z,20.70
2018-04-27T17:13:21.268Z,21.00
2018-04-27T17:15:49.272Z,21.60
2018-04-27T17:18:16.967Z,22.30
2018-04-27T17:20:44.585Z,22.80
2018-04-27T17:23:12.188Z,24.40
2018-04-27T17:25:39.999Z,25.40
2018-04-27T17:28:07.546Z,25.30
2018-04-27T17:30:35.146Z,25.70
2018-04-27T17:33:02.733Z,26.80
2018-04-27T17:35:30.325Z,27.70
2018-04-27T17:37:57.882Z,28.20
2018-04-27T17:40:25.497Z,28.40
2018-04-27T17:42:53.336Z,28.50
2018-04-27T17:45:20.965Z,28.80
2018-04-27T17:47:49.435Z,28.90
2018-04-27T17:50:17.044Z,28.50
2018-04-27T17:52:44.692Z,27.80
2018-04-27T17:55:12.300Z,27.20
2018-04-27T17:57:41.235Z,26.60
2018-04-27T18:00:08.895Z,25.80
2018-04-27T18:02:37.241Z,25.00
2018-04-27T18:05:05.008Z,24.00
2018-04-27T18:07:32.960Z,23.20
2018-04-27T18:10:00.895Z,22.60
2018-04-27T18:12:29.162Z,22.10
2018-04-27T18:14:56.875Z,21.60
2018-04-27T18:17:24.538Z,21.20
2018-04-27T18:19:52.090Z,20.90
2018-04-27T18:22:19.638Z,20.60
2018-04-27T18:24:47.203Z,20.30
2018-04-27T18:27:14.814Z,20.10
2018-04-27T18:29:42.452Z,19.90
2018-04-27T18:32:10.173Z,19.70
2018-04-27T18:34:37.728Z,19.60
2018-04-27T18:37:10.042Z,19.50
2018-04-27T18:39:37.594Z,19.40
2018-04-27T18:42:05.206Z,19.20
2018-04-27T18:44:32.851Z,19.00
2018-04-27T18:47:00.489Z,18.80
2018-04-27T18:49:28.048Z,18.50
2018-04-27T18:51:55.678Z,18.30
2018-04-27T18:54:23.238Z,18.20
2018-04-27T18:56:51.001Z,18.00
2018-04-27T18:59:18.577Z,17.70
2018-04-27T19:01:46.181Z,17.60
2018-04-27T19:04:15.671Z,17.40
2018-04-27T19:06:43.229Z,17.30
2018-04-27T19:09:11.188Z,17.00
2018-04-27T19:11:39.470Z,17.00
2018-04-27T19:14:07.031Z,16.90
2018-04-27T19:16:34.611Z,16.80
2018-04-27T19:19:02.206Z,16.60
2018-04-27T19:21:29.804Z,16.50
2018-04-27T19:26:51.982Z,16.30
2018-04-27T19:29:19.564Z,16.10
2018-04-27T19:31:50.639Z,15.90
2018-04-27T19:34:29.984Z,15.80
2018-04-27T19:36:57.569Z,15.70
2018-04-27T19:39:25.146Z,15.60
2018-04-27T19:41:52.702Z,15.60
2018-04-27T19:44:20.248Z,15.60
2018-04-27T19:46:59.908Z,15.50
2018-04-27T19:49:27.479Z,15.30
2018-04-27T19:51:55.087Z,15.20
2018-04-27T19:54:22.646Z,15.10
2018-04-27T19:56:50.622Z,15.30
2018-04-27T19:59:18.174Z,15.30
2018-04-27T20:01:46.114Z,15.40
2018-04-27T20:04:13.710Z,15.40
2018-04-27T20:06:41.807Z,15.20
2018-04-27T20:09:09.441Z,15.00
2018-04-27T20:11:37.117Z,14.80
2018-04-27T20:14:04.746Z,14.50
2018-04-27T20:19:37.187Z,14.20
2018-04-27T20:22:16.635Z,14.00
2018-04-27T20:24:44.198Z,14.00
2018-04-27T20:27:11.753Z,13.90
2018-04-27T20:29:39.466Z,13.90
2018-04-27T20:32:07.016Z,13.90
2018-04-27T20:34:34.640Z,13.80
2018-04-27T20:37:02.296Z,13.70
2018-04-27T20:39:29.868Z,13.70
2018-04-27T20:41:57.443Z,13.60
2018-04-27T20:44:25.571Z,13.60
2018-04-27T20:46:53.613Z,13.60
2018-04-27T20:49:21.160Z,13.60
2018-04-27T20:51:50.493Z,13.50
2018-04-27T20:54:18.071Z,13.50
2018-04-27T20:56:49.854Z,13.40
2018-04-27T20:59:17.843Z,13.40
2018-04-27T21:01:45.445Z,13.40
2018-04-27T21:04:13.023Z,13.30
2018-04-27T21:06:40.619Z,13.30
2018-04-27T21:09:09.109Z,13.20
2018-04-27T21:11:37.425Z,13.20
2018-04-27T21:14:05.108Z,13.00
2018-04-27T21:16:32.628Z,12.90
2018-04-27T21:19:00.215Z,12.80
2018-04-27T21:21:27.758Z,12.70
2018-04-27T21:23:55.382Z,12.70
2018-04-27T21:26:24.571Z,12.60
2018-04-27T21:28:54.233Z,12.60
2018-04-27T21:31:21.839Z,12.60
2018-04-27T21:33:52.874Z,12.50
2018-04-27T21:36:35.392Z,12.40
2018-04-27T21:39:28.518Z,12.40
2018-04-27T21:42:00.832Z,12.20
2018-04-27T21:44:36.273Z,12.20
2018-04-27T21:50:09.365Z,12.20
2018-04-27T21:52:37.677Z,12.20
2018-04-27T21:55:06.141Z,12.10
2018-04-27T21:57:36.617Z,12.10
2018-04-27T22:00:06.912Z,12.00
2018-04-27T22:02:50.826Z,12.00
2018-04-27T22:08:35.102Z,12.40
2018-04-27T22:11:07.030Z,13.00
2018-04-27T22:13:34.650Z,13.60
2018-04-27T22:16:02.254Z,14.00
2018-04-27T22:18:30.638Z,14.30
2018-04-27T22:20:58.202Z,14.50
2018-04-27T22:23:28.616Z,14.60
2018-04-27T22:25:56.192Z,14.70
2018-04-27T22:28:27.151Z,14.80
2018-04-27T22:30:55.624Z,14.80
2018-04-27T22:36:29.928Z,14.80
2018-04-27T22:39:17.116Z,14.80
2018-04-27T22:42:10.742Z,14.90
2018-04-27T22:47:41.211Z,14.80
2018-04-27T22:50:08.836Z,14.70
2018-04-27T22:52:37.089Z,14.60
2018-04-27T22:55:08.368Z,14.60
2018-04-27T22:57:36.855Z,14.60
2018-04-27T23:00:10.266Z,14.60
2018-04-27T23:02:37.851Z,14.70
2018-04-27T23:05:22.932Z,14.60
2018-04-27T23:07:51.329Z,14.60
2018-04-27T23:10:20.718Z,14.70
2018-04-27T23:13:05.056Z,14.70
2018-04-27T23:15:42.594Z,14.60
2018-04-27T23:18:22.901Z,14.60
2018-04-27T23:20:52.262Z,14.60
2018-04-27T23:23:19.999Z,14.70
2018-04-27T23:25:48.602Z,14.70
2018-04-27T23:28:16.890Z,14.70
2018-04-27T23:30:44.620Z,14.70
2018-04-27T23:33:14.047Z,14.70
2018-04-27T23:35:42.309Z,14.60
2018-04-27T23:38:09.835Z,14.60
2018-04-27T23:40:37.408Z,14.60
2018-04-27T23:43:07.221Z,14.50
2018-04-27T23:45:35.498Z,14.40
2018-04-27T23:48:03.052Z,14.40
2018-04-27T23:50:30.610Z,14.30
2018-04-27T23:52:58.157Z,14.20
2018-04-27T23:55:25.736Z,14.20
2018-04-27T23:57:53.297Z,14.10
